CheckWX is a tool to help pilots better visualize weather data.  It is not intended as a substitute for an official pre-flight weather briefing.

16:17:10 UTC

KDEQ METAR
J Lynn Helms Sevier County Airport
De Queen, Arkansas, USA
Current

24 mins ago

KDEQ 211553Z AUTO VRB03KT 10SM CLR 02/M05 A3072 RMK AO1 SLP402 T00221050
Observed
Feb-21 @ 15:53 UTC
Wind
  • Variable at 3 KTS
Visibility
10 SM
Flight Rules
VFR
Cloud Levels
  • Clear skies
Temperature
C / 36°F
Dewpoint
-5°C / 23°F
Humidity
60%
Altimeter
30.72" Hg
Pressure
1040.32 hPa
Previous

1 hour ago

KDEQ 211453Z AUTO 08003KT 10SM CLR 01/M04 A3071 RMK AO1 SLP401 I3001 T00111044 53016
Observed
Feb-21 @ 14:53 UTC
Wind
  • 080° at 3 KTS
Visibility
10 SM
Flight Rules
VFR
Cloud Levels
  • Clear skies
Temperature
C / 34°F
Dewpoint
-4°C / 25°F
Humidity
70%
Altimeter
30.71" Hg
Pressure
1039.92 hPa
Previous

2 hours ago

KDEQ 211353Z AUTO 00000KT 10SM CLR M02/M03 A3070 RMK AO1 SLP398 T10171033
Observed
Feb-21 @ 13:53 UTC
Visibility
10 SM
Flight Rules
VFR
Cloud Levels
  • Clear skies
Temperature
-2°C / 28°F
Dewpoint
-3°C / 27°F
Humidity
93%
Altimeter
30.7" Hg
Pressure
1039.62 hPa